首页
METAR-TAF:

METAR-TAF

机场 :

喀土穆, 苏丹共和国

喀土穆国际机场

纬度: 15-36N, 经度: 032-33E, 海拔: 382米

当前天气观测

该预报发布于24分钟前的06:30 UTC
风速7节,风向东北
温度 33°C
湿度 10%
气压 1012 hPa
能見度: 8000

METAR: HSSS 250630Z 05007KT 8000 33/M02 Q1012 NOSIG

时间: 09:54 (06:54 UTC)

预报

该预报发布于1小时和54分钟前的05:00 UTC
预报有效从25日的 06点(UTC)到 26日的 12点(UTC)
风速3节,风向多变
能見度: 8000
天空无云
短暂存在
从 25日的 06点(UTC)到 25日的 09点(UTC)
能見度: 6000
短暂存在
从 25日的 12点(UTC)到 25日的 18点(UTC)
能見度: 3000
浮尘
短暂存在
从 26日的 00点(UTC)到 26日的 06点(UTC)
风速15节,风向,有时为25节阵风
能見度: 6000
短暂存在
从 26日的 09点(UTC)到 26日的 12点(UTC)
风速20节,风向,有时为30节阵风
能見度: 3000
高吹沙

TAF: HSSS 250500Z 2506/2612 VRB03KT 8000 SKC TEMPO 2506/2509 6000 NSC TEMPO 2512/2518 3000 DU TEMPO 2600/2606 36015G25KT 6000 NSC TEMPO 2609/2612 36020G30KT 3000 BLSA

超过4000个机场的气象观测和天气预报(METAR&TAF报告)。

可查询的气象台以黄色和红色小点在地图上表示。

将鼠标移到小点上方,可查看气象台名称。

然后点击查看天气观测和预报。

如需切换地图:点击带黑十字的绿色按钮放大地图;点击带横线的绿色按钮缩小地图;或者点击绿色箭头查看邻近地区的地图。


METAR-TAF: